createdAt,value
2023-05-18T00:00:06.904Z,97672.09
2023-05-18T00:04:08.496Z,97665.41
2023-05-18T00:08:11.551Z,97669.69
2023-05-18T00:12:12.764Z,97664.69
2023-05-18T00:16:16.147Z,97663.22
2023-05-18T00:20:18.315Z,97655.94
2023-05-18T00:24:22.278Z,97644.69
2023-05-18T00:28:22.538Z,97648.06
2023-05-18T00:32:22.727Z,97644.91
2023-05-18T00:36:23.166Z,97646.16
2023-05-18T00:40:28.649Z,97655.44
2023-05-18T00:44:28.970Z,97660.38
2023-05-18T00:48:29.236Z,97657.94
2023-05-18T00:52:33.220Z,97662.78
2023-05-18T00:56:36.913Z,97663.25
2023-05-18T01:00:39.067Z,97657.50
2023-05-18T01:04:41.540Z,97646.41
2023-05-18T01:08:43.394Z,97657.19
2023-05-18T01:12:54.575Z,97663.47
2023-05-18T01:17:04.665Z,97658.50
2023-05-18T01:21:22.220Z,97658.59
2023-05-18T01:25:36.991Z,97638.47
2023-05-18T01:29:41.672Z,97656.75
2023-05-18T01:33:42.272Z,97667.66
2023-05-18T01:37:42.916Z,97662.19
2023-05-18T01:41:51.978Z,97656.53
2023-05-18T01:46:04.383Z,97624.16
2023-05-18T01:50:13.035Z,97658.53
2023-05-18T01:54:15.728Z,97651.94
2023-05-18T01:58:17.671Z,97651.50
2023-05-18T02:02:20.795Z,97653.88
2023-05-18T02:06:21.287Z,97649.91
2023-05-18T02:10:21.817Z,97651.09
2023-05-18T02:14:22.191Z,97647.09
2023-05-18T02:18:27.029Z,97647.56
2023-05-18T02:22:27.497Z,97643.13
2023-05-18T02:26:27.936Z,97646.38
2023-05-18T02:30:29.479Z,97641.53
2023-05-18T02:34:33.197Z,97651.38
2023-05-18T02:38:33.531Z,97649.53
2023-05-18T02:42:34.158Z,97637.97
2023-05-18T02:46:35.411Z,97652.63
2023-05-18T02:50:38.638Z,97650.00
2023-05-18T02:54:39.604Z,97645.53
2023-05-18T02:58:46.614Z,97647.97
2023-05-18T03:02:57.978Z,97656.72
2023-05-18T03:07:03.203Z,97656.09
2023-05-18T03:11:03.900Z,97660.78
2023-05-18T03:15:05.506Z,97630.28
2023-05-18T03:19:05.810Z,97627.25
2023-05-18T03:23:12.900Z,97643.72
2023-05-18T03:27:16.796Z,97646.56
2023-05-18T03:31:18.293Z,97631.28
2023-05-18T03:35:19.036Z,97657.34
2023-05-18T03:39:22.035Z,97642.50
2023-05-18T03:43:25.585Z,97651.88
2023-05-18T03:47:27.215Z,97664.28
2023-05-18T03:51:29.319Z,97654.91
2023-05-18T03:55:32.600Z,97667.94
2023-05-18T03:59:33.568Z,97662.84
2023-05-18T04:03:35.460Z,97651.47
2023-05-18T04:07:44.452Z,97667.34
2023-05-18T04:11:48.197Z,97670.22
2023-05-18T04:15:49.042Z,97651.91
2023-05-18T04:19:49.275Z,97671.78
2023-05-18T04:23:53.506Z,97668.97
2023-05-18T04:27:57.422Z,97652.91
2023-05-18T04:32:00.260Z,97680.97
2023-05-18T04:36:05.196Z,97679.50
2023-05-18T04:40:08.258Z,97690.28
2023-05-18T04:44:14.456Z,97686.16
2023-05-18T04:48:18.042Z,97689.97
2023-05-18T04:52:18.773Z,97686.63
2023-05-18T04:56:20.844Z,97687.00
2023-05-18T05:00:24.999Z,97691.03
2023-05-18T05:04:26.092Z,97698.25
2023-05-18T05:08:26.429Z,97705.94
2023-05-18T05:12:26.586Z,97695.66
2023-05-18T05:16:29.816Z,97696.75
2023-05-18T05:20:30.128Z,97700.16
2023-05-18T05:24:31.569Z,97697.59
2023-05-18T05:28:32.227Z,97696.25
2023-05-18T05:32:36.284Z,97706.66
2023-05-18T05:36:36.717Z,97708.41
2023-05-18T05:40:37.619Z,97702.16
2023-05-18T05:44:39.678Z,97704.34
2023-05-18T05:48:42.872Z,97707.97
2023-05-18T05:52:43.342Z,97707.34
2023-05-18T05:56:44.269Z,97708.97
2023-05-18T06:00:46.378Z,97709.31
2023-05-18T06:04:50.503Z,97699.56
2023-05-18T06:08:50.817Z,97708.91
2023-05-18T06:12:51.822Z,97706.56
2023-05-18T06:16:53.619Z,97699.44
2023-05-18T06:20:57.056Z,97707.53
2023-05-18T06:24:57.389Z,97707.41
2023-05-18T06:29:17.726Z,97703.59
2023-05-18T06:33:39.277Z,97708.91
2023-05-18T06:37:43.141Z,97702.63
2023-05-18T06:41:45.314Z,97707.16
2023-05-18T06:45:53.077Z,97711.22
2023-05-18T06:50:14.117Z,97715.66
2023-05-18T06:54:17.468Z,97713.66
2023-05-18T06:58:18.095Z,97694.84
2023-05-18T07:02:19.384Z,97704.31
2023-05-18T07:06:20.058Z,97699.38
2023-05-18T07:10:23.636Z,97711.97
2023-05-18T07:14:54.427Z,97653.00
2023-05-18T07:18:57.990Z,97715.97
2023-05-18T07:22:58.388Z,97711.13
2023-05-18T07:27:01.571Z,97708.47
2023-05-18T07:31:01.948Z,97696.19
2023-05-18T07:35:05.326Z,97675.63
2023-05-18T07:39:09.236Z,97690.47
2023-05-18T07:43:12.358Z,97686.09
2023-05-18T07:47:13.093Z,97707.06
2023-05-18T07:51:13.469Z,97684.22
2023-05-18T07:55:14.062Z,97678.00
2023-05-18T07:59:17.539Z,97690.00
2023-05-18T08:03:20.280Z,97676.06
2023-05-18T08:07:28.383Z,97602.28
2023-05-18T08:11:33.438Z,97672.81
2023-05-18T08:15:39.216Z,97679.19
2023-05-18T08:19:44.496Z,97660.63
2023-05-18T08:23:46.290Z,97661.44
2023-05-18T08:27:56.897Z,97635.13
2023-05-18T08:32:17.448Z,97621.00
2023-05-18T08:36:22.108Z,97629.13
2023-05-18T08:40:34.196Z,97681.91
2023-05-18T08:44:49.255Z,97652.88
2023-05-18T08:49:02.682Z,97595.38
2023-05-18T08:53:17.948Z,97602.31
2023-05-18T08:57:39.607Z,97614.38
2023-05-18T09:01:50.274Z,97662.53
2023-05-18T09:06:09.706Z,97654.16
2023-05-18T09:11:01.972Z,97634.22
2023-05-18T09:15:22.496Z,97592.75
2023-05-18T09:19:39.456Z,97601.03
2023-05-18T09:23:59.696Z,97612.78
2023-05-18T09:28:16.238Z,97644.34
2023-05-18T09:32:43.212Z,97642.41
2023-05-18T09:36:58.353Z,97635.59
2023-05-18T09:41:04.726Z,97621.81
2023-05-18T09:45:08.875Z,97609.84
2023-05-18T09:49:20.767Z,97615.22
2023-05-18T09:53:35.286Z,97673.06
2023-05-18T09:57:52.395Z,97579.66
2023-05-18T10:02:14.212Z,97571.91
2023-05-18T10:06:34.819Z,97607.84
2023-05-18T10:10:53.411Z,97639.56
2023-05-18T10:14:58.345Z,97619.59
2023-05-18T10:19:03.351Z,97624.91
2023-05-18T10:23:18.103Z,97640.19
2023-05-18T10:27:31.560Z,97638.16
2023-05-18T10:31:51.435Z,97618.47
2023-05-18T10:36:00.456Z,97609.38
2023-05-18T10:40:21.296Z,97638.97
2023-05-18T10:44:42.512Z,97539.59
2023-05-18T10:49:15.904Z,97637.41
2023-05-18T10:54:01.983Z,97632.38
2023-05-18T10:58:56.096Z,97549.00
2023-05-18T11:03:01.936Z,97629.63
2023-05-18T11:07:23.369Z,97512.41
2023-05-18T11:12:07.641Z,97558.84
2023-05-18T11:16:15.517Z,97616.91
2023-05-18T11:20:29.970Z,97609.03
2023-05-18T11:24:48.192Z,97594.94
2023-05-18T11:28:56.860Z,97540.19
2023-05-18T11:33:14.325Z,97618.16
2023-05-18T11:37:18.299Z,97618.47
2023-05-18T11:41:44.520Z,97609.13
2023-05-18T11:46:04.440Z,97601.81
2023-05-18T11:50:19.781Z,97601.41
2023-05-18T11:54:27.394Z,97599.53
2023-05-18T11:58:38.794Z,97605.13
2023-05-18T12:02:49.004Z,97585.06
2023-05-18T12:07:05.339Z,97583.19
2023-05-18T12:11:14.851Z,97583.56
2023-05-18T12:15:20.006Z,97586.00
2023-05-18T12:28:11.040Z,97564.25
2023-05-18T12:32:23.630Z,97534.56
2023-05-18T12:36:37.080Z,97553.59
2023-05-18T12:40:51.196Z,97559.16
2023-05-18T12:45:01.581Z,97571.09
2023-05-18T12:49:13.683Z,97569.53
2023-05-18T12:53:20.468Z,97572.97
2023-05-18T12:57:31.204Z,97535.09
2023-05-18T13:01:48.379Z,97491.72
2023-05-18T13:06:18.652Z,97542.38
2023-05-18T13:10:24.330Z,97568.03
2023-05-18T13:14:50.393Z,97453.63
2023-05-18T13:19:21.867Z,97461.25
2023-05-18T13:23:46.890Z,97443.84
2023-05-18T13:28:14.485Z,97455.50
2023-05-18T13:32:22.469Z,97498.06
2023-05-18T13:36:34.710Z,97441.97
2023-05-18T13:40:49.357Z,97448.97
2023-05-18T13:45:15.789Z,97552.47
2023-05-18T13:49:23.963Z,97556.91
2023-05-18T13:53:29.633Z,97553.44
2023-05-18T13:57:42.053Z,97559.31
2023-05-18T14:01:47.968Z,97549.84
2023-05-18T14:05:51.020Z,97549.38
2023-05-18T14:09:56.182Z,97548.69
2023-05-18T14:14:03.678Z,97506.97
2023-05-18T14:18:13.103Z,97522.31
2023-05-18T14:22:19.780Z,97522.41
2023-05-18T14:26:30.342Z,97537.53
2023-05-18T14:30:47.590Z,97526.03
2023-05-18T14:34:52.359Z,97464.72
2023-05-18T14:38:59.901Z,97512.22
2023-05-18T14:43:03.072Z,97517.44
2023-05-18T14:47:08.188Z,97484.78
2023-05-18T14:51:18.936Z,97504.03
2023-05-18T14:55:25.318Z,97509.88
2023-05-18T14:59:27.556Z,97502.50
2023-05-18T15:03:32.149Z,97515.00
2023-05-18T15:07:41.848Z,97384.19
2023-05-18T15:11:48.872Z,97491.16
2023-05-18T15:15:51.400Z,97503.03
2023-05-18T15:20:13.342Z,97459.00
2023-05-18T15:24:15.962Z,97418.91
2023-05-18T15:28:23.947Z,97435.03
2023-05-18T15:32:34.713Z,97452.72
2023-05-18T15:36:39.418Z,97473.03
2023-05-18T15:40:46.513Z,97486.47
2023-05-18T15:44:51.440Z,97462.56
2023-05-18T15:48:59.076Z,97493.53
2023-05-18T15:53:04.378Z,97484.81
2023-05-18T15:57:09.481Z,97469.72
2023-05-18T16:01:12.771Z,97475.78
2023-05-18T16:05:17.736Z,97469.34
2023-05-18T16:09:30.521Z,97470.25
2023-05-18T16:13:39.780Z,97471.75
2023-05-18T16:17:47.951Z,97462.78
2023-05-18T16:21:52.435Z,97463.28
2023-05-18T16:26:00.253Z,97455.31
2023-05-18T16:30:11.645Z,97460.78
2023-05-18T16:34:17.794Z,97460.00
2023-05-18T16:38:33.444Z,97479.34
2023-05-18T16:42:42.388Z,97474.47
2023-05-18T16:46:47.706Z,97461.84
2023-05-18T16:50:56.018Z,97471.31
2023-05-18T16:55:03.371Z,97438.06
2023-05-18T16:59:18.607Z,97446.50
2023-05-18T17:03:30.614Z,97457.44
2023-05-18T17:07:35.052Z,97462.97
2023-05-18T17:11:37.725Z,97464.03
2023-05-18T17:15:47.143Z,97476.41
2023-05-18T17:19:52.616Z,97461.81
2023-05-18T17:24:37.197Z,97379.31
2023-05-18T17:28:54.913Z,97412.41
2023-05-18T17:33:44.525Z,97418.59
2023-05-18T17:37:49.342Z,97490.75
2023-05-18T17:41:53.106Z,97402.13
2023-05-18T17:46:01.838Z,97368.28
2023-05-18T17:50:14.723Z,97496.44
2023-05-18T17:54:28.012Z,97369.78
2023-05-18T17:58:54.068Z,97445.88
2023-05-18T18:02:59.390Z,97477.88
2023-05-18T18:07:11.808Z,97438.84
2023-05-18T18:11:22.617Z,97389.78
2023-05-18T18:15:30.235Z,97530.38
2023-05-18T18:19:35.830Z,97433.13
2023-05-18T18:24:22.682Z,97407.47
2023-05-18T18:28:34.030Z,97539.91
2023-05-18T18:32:45.684Z,97473.25
2023-05-18T18:37:21.850Z,97452.94
2023-05-18T18:41:43.947Z,97449.34
2023-05-18T18:45:57.976Z,97538.34
2023-05-18T18:50:01.857Z,97483.50
2023-05-18T18:54:02.205Z,97514.03
2023-05-18T18:58:05.186Z,97541.06
2023-05-18T19:02:05.686Z,97549.50
2023-05-18T19:06:06.080Z,97557.28
2023-05-18T19:10:07.794Z,97568.06
2023-05-18T19:14:10.841Z,97566.19
2023-05-18T19:18:11.297Z,97575.06
2023-05-18T19:22:12.301Z,97581.25
2023-05-18T19:26:12.595Z,97576.78
2023-05-18T19:30:21.251Z,97568.44
2023-05-18T19:34:21.633Z,97584.22
2023-05-18T19:38:23.082Z,97580.13
2023-05-18T19:42:23.523Z,97577.88
2023-05-18T19:46:26.606Z,97590.88
2023-05-18T19:50:27.826Z,97589.91
2023-05-18T19:54:28.571Z,97571.66
2023-05-18T19:58:29.002Z,97598.50
2023-05-18T20:02:32.301Z,97606.56
2023-05-18T20:06:32.845Z,97599.66
2023-05-18T20:10:33.529Z,97596.38
2023-05-18T20:14:33.974Z,97608.22
2023-05-18T20:18:37.936Z,97586.19
2023-05-18T20:22:38.704Z,97611.38
2023-05-18T20:26:39.921Z,97618.47
2023-05-18T20:30:40.463Z,97617.34
2023-05-18T20:34:44.757Z,97605.00
2023-05-18T20:38:45.220Z,97622.72
2023-05-18T20:42:45.413Z,97603.38
2023-05-18T20:46:46.580Z,97628.66
2023-05-18T20:50:50.105Z,97617.97
2023-05-18T20:54:50.792Z,97619.56
2023-05-18T20:58:51.367Z,97634.16
2023-05-18T21:02:51.647Z,97612.97
2023-05-18T21:06:54.747Z,97628.00
2023-05-18T21:10:55.115Z,97629.09
2023-05-18T21:14:55.394Z,97615.66
2023-05-18T21:18:55.998Z,97622.91
2023-05-18T21:22:59.164Z,97604.09
2023-05-18T21:26:59.732Z,97626.66
2023-05-18T21:31:00.545Z,97626.94
2023-05-18T21:35:01.263Z,97631.50
2023-05-18T21:39:04.911Z,97621.31
2023-05-18T21:43:06.486Z,97631.78
2023-05-18T21:47:07.692Z,97637.41
2023-05-18T21:51:11.781Z,97625.28
2023-05-18T21:55:15.034Z,97634.44
2023-05-18T21:59:15.299Z,97643.56
2023-05-18T22:03:15.695Z,97633.63
2023-05-18T22:07:16.080Z,97639.81
2023-05-18T22:11:19.102Z,97627.19
2023-05-18T22:15:22.904Z,97642.50
2023-05-18T22:19:23.832Z,97638.97
2023-05-18T22:23:25.214Z,97643.00
2023-05-18T22:27:28.033Z,97638.41
2023-05-18T22:31:28.388Z,97629.56
2023-05-18T22:35:31.119Z,97621.22
2023-05-18T22:39:31.638Z,97623.91
2023-05-18T22:43:34.415Z,97620.44
2023-05-18T22:47:35.424Z,97614.78
2023-05-18T22:51:36.775Z,97611.56
2023-05-18T22:55:36.960Z,97604.59
2023-05-18T22:59:40.532Z,97577.13
2023-05-18T23:03:40.722Z,97605.09
2023-05-18T23:07:42.021Z,97606.41
2023-05-18T23:11:44.674Z,97601.84
2023-05-18T23:15:47.961Z,97599.69
2023-05-18T23:19:48.614Z,97596.47
2023-05-18T23:23:48.765Z,97593.53
2023-05-18T23:27:48.971Z,97589.03
2023-05-18T23:31:52.592Z,97585.50
2023-05-18T23:35:54.940Z,97584.13
2023-05-18T23:39:56.166Z,97588.88
2023-05-18T23:43:58.021Z,97559.25
2023-05-18T23:48:03.185Z,97578.28
2023-05-18T23:52:05.987Z,97582.28
2023-05-18T23:56:08.235Z,97582.16
